West River, Maryland
Current Conditions -  °F | °C
As of 1:54 PM on Friday 24 Oct 2014 (Local Time) from KNAK Reporting Station
Clear Clear  
Wind Chill: 65°   Ceiling: Unl
Heat Index: 65°   Visibility: 10mi
Dew Point: 42°   Wind: 8mph
Humidity: 43%   Direction: 320°NW
Pressure: 29.89"   Gusts: NA
Location:  38.85°N, 76.6°W
Report Text: KNAK 241754Z AUTO 32007KT 10SM CLR 18/06 A2989 RMK AO2 SLP122 T01830056 10183 20122 58018
Loading
Personal Weather Stations






























Interactive Weather Map
Tropical Storm Tracking
New forecast layout! Learn more

10-Day Weather Forecast

Advertisements
Track Severe Weather on mobile